sensor_id;sensor_type;location;lat;lon;timestamp;P1;durP1;ratioP1;P2;durP2;ratioP2
63114;SDS011;49208;50.874;6.466;2023-07-29T06:01:10;5.38;;;2.33;;
63114;SDS011;49208;50.874;6.466;2023-07-29T06:03:35;5.68;;;2.75;;
63114;SDS011;49208;50.874;6.466;2023-07-29T06:06:01;6.57;;;3.08;;
63114;SDS011;49208;50.874;6.466;2023-07-29T06:08:27;6.90;;;3.65;;
63114;SDS011;49208;50.874;6.466;2023-07-29T06:10:58;5.22;;;2.53;;
63114;SDS011;49208;50.874;6.466;2023-07-29T06:13:23;7.55;;;3.38;;
63114;SDS011;49208;50.874;6.466;2023-07-29T06:15:48;8.05;;;3.28;;
63114;SDS011;49208;50.874;6.466;2023-07-29T06:18:14;4.85;;;2.78;;
63114;SDS011;49208;50.874;6.466;2023-07-29T06:20:40;7.40;;;3.45;;
63114;SDS011;49208;50.874;6.466;2023-07-29T06:23:06;5.18;;;3.03;;
63114;SDS011;49208;50.874;6.466;2023-07-29T06:27:58;6.60;;;3.20;;
63114;SDS011;49208;50.874;6.466;2023-07-29T06:30:23;8.93;;;3.25;;
63114;SDS011;49208;50.874;6.466;2023-07-29T06:32:48;7.90;;;2.92;;
63114;SDS011;49208;50.874;6.466;2023-07-29T06:35:14;5.85;;;2.67;;
63114;SDS011;49208;50.874;6.466;2023-07-29T06:37:39;6.03;;;2.63;;
63114;SDS011;49208;50.874;6.466;2023-07-29T06:40:05;5.60;;;3.15;;
63114;SDS011;49208;50.874;6.466;2023-07-29T06:42:30;3.92;;;2.72;;
63114;SDS011;49208;50.874;6.466;2023-07-29T06:44:56;6.50;;;2.55;;
63114;SDS011;49208;50.874;6.466;2023-07-29T06:47:21;3.90;;;2.08;;
63114;SDS011;49208;50.874;6.466;2023-07-29T06:49:46;3.67;;;1.90;;
63114;SDS011;49208;50.874;6.466;2023-07-29T06:52:12;4.40;;;1.92;;
63114;SDS011;49208;50.874;6.466;2023-07-29T06:54:37;4.75;;;1.90;;
63114;SDS011;49208;50.874;6.466;2023-07-29T06:57:03;5.45;;;1.98;;
63114;SDS011;49208;50.874;6.466;2023-07-29T06:59:28;4.00;;;1.70;;
63114;SDS011;49208;50.874;6.466;2023-07-29T07:01:54;4.28;;;1.45;;
63114;SDS011;49208;50.874;6.466;2023-07-29T07:04:19;3.28;;;1.55;;
63114;SDS011;49208;50.874;6.466;2023-07-29T07:06:45;3.30;;;1.70;;
63114;SDS011;49208;50.874;6.466;2023-07-29T07:09:10;3.35;;;1.38;;
63114;SDS011;49208;50.874;6.466;2023-07-29T07:11:36;3.45;;;1.40;;
63114;SDS011;49208;50.874;6.466;2023-07-29T07:14:01;3.78;;;1.60;;
63114;SDS011;49208;50.874;6.466;2023-07-29T07:16:26;3.08;;;1.30;;
63114;SDS011;49208;50.874;6.466;2023-07-29T07:18:55;2.58;;;1.45;;
63114;SDS011;49208;50.874;6.466;2023-07-29T07:21:20;3.97;;;1.67;;
63114;SDS011;49208;50.874;6.466;2023-07-29T07:23:46;3.40;;;1.45;;
63114;SDS011;49208;50.874;6.466;2023-07-29T07:26:11;4.10;;;1.40;;
63114;SDS011;49208;50.874;6.466;2023-07-29T07:28:36;3.75;;;1.90;;
63114;SDS011;49208;50.874;6.466;2023-07-29T07:31:02;4.72;;;1.58;;
63114;SDS011;49208;50.874;6.466;2023-07-29T07:33:27;4.22;;;1.60;;
63114;SDS011;49208;50.874;6.466;2023-07-29T07:35:52;3.83;;;1.38;;
63114;SDS011;49208;50.874;6.466;2023-07-29T07:38:18;3.45;;;1.55;;
63114;SDS011;49208;50.874;6.466;2023-07-29T07:40:51;4.40;;;1.45;;
63114;SDS011;49208;50.874;6.466;2023-07-29T07:43:23;2.75;;;1.20;;
63114;SDS011;49208;50.874;6.466;2023-07-29T07:45:48;3.20;;;1.48;;
63114;SDS011;49208;50.874;6.466;2023-07-29T07:48:14;3.42;;;1.60;;
63114;SDS011;49208;50.874;6.466;2023-07-29T07:53:06;3.43;;;1.53;;
63114;SDS011;49208;50.874;6.466;2023-07-29T07:55:32;2.60;;;1.20;;
63114;SDS011;49208;50.874;6.466;2023-07-29T07:57:57;6.30;;;1.50;;
63114;SDS011;49208;50.874;6.466;2023-07-29T08:00:22;5.65;;;1.27;;
63114;SDS011;49208;50.874;6.466;2023-07-29T08:02:48;3.03;;;1.23;;
63114;SDS011;49208;50.874;6.466;2023-07-29T08:05:13;3.83;;;1.48;;
63114;SDS011;49208;50.874;6.466;2023-07-29T08:07:38;2.75;;;1.05;;
63114;SDS011;49208;50.874;6.466;2023-07-29T08:10:04;3.20;;;1.10;;
63114;SDS011;49208;50.874;6.466;2023-07-29T08:12:30;3.85;;;1.20;;
63114;SDS011;49208;50.874;6.466;2023-07-29T08:14:55;3.78;;;1.40;;
63114;SDS011;49208;50.874;6.466;2023-07-29T08:17:21;3.88;;;1.10;;
63114;SDS011;49208;50.874;6.466;2023-07-29T08:19:46;2.42;;;1.05;;
63114;SDS011;49208;50.874;6.466;2023-07-29T08:22:12;5.05;;;1.27;;
63114;SDS011;49208;50.874;6.466;2023-07-29T08:24:37;3.20;;;1.25;;
63114;SDS011;49208;50.874;6.466;2023-07-29T08:27:02;2.15;;;1.00;;
63114;SDS011;49208;50.874;6.466;2023-07-29T08:29:28;4.22;;;1.42;;
63114;SDS011;49208;50.874;6.466;2023-07-29T08:31:53;2.88;;;1.10;;
63114;SDS011;49208;50.874;6.466;2023-07-29T08:34:20;2.38;;;1.10;;
63114;SDS011;49208;50.874;6.466;2023-07-29T08:36:45;4.03;;;1.58;;
63114;SDS011;49208;50.874;6.466;2023-07-29T08:39:11;2.58;;;1.33;;
63114;SDS011;49208;50.874;6.466;2023-07-29T08:44:35;3.08;;;1.00;;
63114;SDS011;49208;50.874;6.466;2023-07-29T08:47:05;2.90;;;1.10;;
63114;SDS011;49208;50.874;6.466;2023-07-29T08:49:30;4.45;;;1.52;;
63114;SDS011;49208;50.874;6.466;2023-07-29T08:51:57;4.10;;;1.30;;
63114;SDS011;49208;50.874;6.466;2023-07-29T08:54:22;3.40;;;1.15;;
63114;SDS011;49208;50.874;6.466;2023-07-29T08:56:48;2.35;;;1.00;;
63114;SDS011;49208;50.874;6.466;2023-07-29T08:59:13;3.38;;;1.25;;
63114;SDS011;49208;50.874;6.466;2023-07-29T09:01:39;2.80;;;1.10;;
63114;SDS011;49208;50.874;6.466;2023-07-29T09:04:05;2.88;;;1.15;;
63114;SDS011;49208;50.874;6.466;2023-07-29T09:06:33;1.83;;;0.93;;
63114;SDS011;49208;50.874;6.466;2023-07-29T09:09:00;1.98;;;1.00;;
63114;SDS011;49208;50.874;6.466;2023-07-29T09:11:27;1.60;;;0.80;;
63114;SDS011;49208;50.874;6.466;2023-07-29T09:13:53;3.40;;;1.10;;
63114;SDS011;49208;50.874;6.466;2023-07-29T09:16:21;3.53;;;1.08;;
63114;SDS011;49208;50.874;6.466;2023-07-29T09:18:47;3.03;;;1.15;;
63114;SDS011;49208;50.874;6.466;2023-07-29T09:21:15;3.83;;;0.95;;
63114;SDS011;49208;50.874;6.466;2023-07-29T09:26:08;3.08;;;1.27;;
63114;SDS011;49208;50.874;6.466;2023-07-29T09:28:35;3.70;;;1.17;;
63114;SDS011;49208;50.874;6.466;2023-07-29T09:31:04;2.90;;;1.15;;
63114;SDS011;49208;50.874;6.466;2023-07-29T09:33:33;2.78;;;1.10;;
63114;SDS011;49208;50.874;6.466;2023-07-29T09:36:08;2.80;;;1.08;;
63114;SDS011;49208;50.874;6.466;2023-07-29T09:38:34;4.25;;;1.10;;
63114;SDS011;49208;50.874;6.466;2023-07-29T09:41:03;3.08;;;1.15;;
63114;SDS011;49208;50.874;6.466;2023-07-29T09:43:29;3.70;;;1.10;;
63114;SDS011;49208;50.874;6.466;2023-07-29T09:45:59;3.55;;;1.40;;
63114;SDS011;49208;50.874;6.466;2023-07-29T09:48:26;3.95;;;1.35;;
63114;SDS011;49208;50.874;6.466;2023-07-29T09:50:53;9.60;;;1.92;;
63114;SDS011;49208;50.874;6.466;2023-07-29T09:53:19;2.90;;;1.40;;
63114;SDS011;49208;50.874;6.466;2023-07-29T09:55:46;4.28;;;1.40;;
63114;SDS011;49208;50.874;6.466;2023-07-29T09:58:13;4.78;;;1.23;;
63114;SDS011;49208;50.874;6.466;2023-07-29T10:00:39;2.80;;;1.35;;
63114;SDS011;49208;50.874;6.466;2023-07-29T10:03:05;4.32;;;1.50;;
63114;SDS011;49208;50.874;6.466;2023-07-29T10:05:31;2.87;;;1.30;;
63114;SDS011;49208;50.874;6.466;2023-07-29T10:07:59;2.60;;;1.17;;
63114;SDS011;49208;50.874;6.466;2023-07-29T10:10:26;2.50;;;1.05;;
63114;SDS011;49208;50.874;6.466;2023-07-29T10:12:52;2.97;;;1.48;;
63114;SDS011;49208;50.874;6.466;2023-07-29T10:15:19;2.22;;;1.15;;
63114;SDS011;49208;50.874;6.466;2023-07-29T10:17:46;2.73;;;1.20;;
63114;SDS011;49208;50.874;6.466;2023-07-29T10:20:12;4.13;;;1.67;;
63114;SDS011;49208;50.874;6.466;2023-07-29T10:22:39;3.00;;;1.13;;
63114;SDS011;49208;50.874;6.466;2023-07-29T10:25:19;3.10;;;1.65;;
63114;SDS011;49208;50.874;6.466;2023-07-29T10:27:48;4.90;;;1.50;;
63114;SDS011;49208;50.874;6.466;2023-07-29T10:30:17;2.88;;;1.17;;
63114;SDS011;49208;50.874;6.466;2023-07-29T10:32:43;5.15;;;1.60;;
63114;SDS011;49208;50.874;6.466;2023-07-29T10:35:10;5.47;;;1.50;;
63114;SDS011;49208;50.874;6.466;2023-07-29T10:37:36;3.28;;;1.20;;
63114;SDS011;49208;50.874;6.466;2023-07-29T10:40:05;3.35;;;1.50;;
63114;SDS011;49208;50.874;6.466;2023-07-29T10:42:32;2.42;;;1.08;;
63114;SDS011;49208;50.874;6.466;2023-07-29T10:44:57;4.18;;;1.40;;
63114;SDS011;49208;50.874;6.466;2023-07-29T10:47:23;2.90;;;1.40;;
63114;SDS011;49208;50.874;6.466;2023-07-29T10:52:28;3.60;;;1.70;;
63114;SDS011;49208;50.874;6.466;2023-07-29T10:54:53;3.83;;;1.93;;
63114;SDS011;49208;50.874;6.466;2023-07-29T10:57:38;3.67;;;1.70;;
63114;SDS011;49208;50.874;6.466;2023-07-29T11:00:06;2.22;;;1.10;;
63114;SDS011;49208;50.874;6.466;2023-07-29T11:02:36;2.63;;;1.08;;
63114;SDS011;49208;50.874;6.466;2023-07-29T11:05:06;4.03;;;1.38;;
63114;SDS011;49208;50.874;6.466;2023-07-29T11:07:48;2.40;;;1.10;;
63114;SDS011;49208;50.874;6.466;2023-07-29T11:10:14;5.25;;;1.17;;
63114;SDS011;49208;50.874;6.466;2023-07-29T11:15:19;2.80;;;1.10;;
63114;SDS011;49208;50.874;6.466;2023-07-29T11:17:50;2.78;;;1.05;;
63114;SDS011;49208;50.874;6.466;2023-07-29T11:20:17;4.55;;;1.15;;
63114;SDS011;49208;50.874;6.466;2023-07-29T11:22:45;2.42;;;1.10;;
63114;SDS011;49208;50.874;6.466;2023-07-29T11:25:11;3.42;;;1.20;;
63114;SDS011;49208;50.874;6.466;2023-07-29T11:27:38;2.53;;;1.00;;
63114;SDS011;49208;50.874;6.466;2023-07-29T11:30:05;3.10;;;1.10;;
63114;SDS011;49208;50.874;6.466;2023-07-29T11:32:32;2.75;;;1.33;;
63114;SDS011;49208;50.874;6.466;2023-07-29T11:35:02;3.00;;;1.20;;
63114;SDS011;49208;50.874;6.466;2023-07-29T11:37:32;2.40;;;1.10;;
63114;SDS011;49208;50.874;6.466;2023-07-29T11:42:24;2.43;;;1.20;;
63114;SDS011;49208;50.874;6.466;2023-07-29T11:44:49;2.45;;;1.35;;
63114;SDS011;49208;50.874;6.466;2023-07-29T11:47:14;3.20;;;1.45;;
63114;SDS011;49208;50.874;6.466;2023-07-29T11:49:40;2.95;;;1.30;;
63114;SDS011;49208;50.874;6.466;2023-07-29T11:52:06;3.85;;;1.10;;
63114;SDS011;49208;50.874;6.466;2023-07-29T11:54:34;2.78;;;1.33;;
63114;SDS011;49208;50.874;6.466;2023-07-29T11:57:00;3.45;;;1.55;;
63114;SDS011;49208;50.874;6.466;2023-07-29T11:59:27;2.58;;;1.33;;
63114;SDS011;49208;50.874;6.466;2023-07-29T12:01:53;4.05;;;1.67;;
63114;SDS011;49208;50.874;6.466;2023-07-29T12:04:18;5.05;;;2.55;;
63114;SDS011;49208;50.874;6.466;2023-07-29T12:06:44;3.30;;;1.65;;
63114;SDS011;49208;50.874;6.466;2023-07-29T12:09:10;2.92;;;1.30;;
63114;SDS011;49208;50.874;6.466;2023-07-29T12:11:35;5.60;;;1.38;;
63114;SDS011;49208;50.874;6.466;2023-07-29T12:14:01;3.40;;;1.42;;
63114;SDS011;49208;50.874;6.466;2023-07-29T12:16:26;3.67;;;1.20;;
63114;SDS011;49208;50.874;6.466;2023-07-29T12:18:52;3.10;;;1.60;;
63114;SDS011;49208;50.874;6.466;2023-07-29T12:21:20;4.07;;;1.50;;
63114;SDS011;49208;50.874;6.466;2023-07-29T12:23:46;2.72;;;1.30;;
63114;SDS011;49208;50.874;6.466;2023-07-29T12:26:11;3.28;;;1.60;;
63114;SDS011;49208;50.874;6.466;2023-07-29T12:28:37;2.83;;;1.48;;
63114;SDS011;49208;50.874;6.466;2023-07-29T12:31:06;2.88;;;1.10;;
63114;SDS011;49208;50.874;6.466;2023-07-29T12:33:32;3.30;;;1.30;;
63114;SDS011;49208;50.874;6.466;2023-07-29T12:36:04;3.20;;;1.27;;
63114;SDS011;49208;50.874;6.466;2023-07-29T12:38:29;3.63;;;1.40;;
63114;SDS011;49208;50.874;6.466;2023-07-29T12:40:55;3.83;;;1.33;;
63114;SDS011;49208;50.874;6.466;2023-07-29T12:43:21;3.00;;;1.30;;
63114;SDS011;49208;50.874;6.466;2023-07-29T12:45:48;4.05;;;1.40;;
63114;SDS011;49208;50.874;6.466;2023-07-29T12:48:14;3.55;;;1.30;;
63114;SDS011;49208;50.874;6.466;2023-07-29T12:50:40;3.33;;;1.10;;
63114;SDS011;49208;50.874;6.466;2023-07-29T12:53:06;3.60;;;1.30;;
63114;SDS011;49208;50.874;6.466;2023-07-29T12:55:32;2.72;;;1.38;;
63114;SDS011;49208;50.874;6.466;2023-07-29T12:57:58;2.53;;;1.20;;
63114;SDS011;49208;50.874;6.466;2023-07-29T13:00:24;3.13;;;1.23;;
63114;SDS011;49208;50.874;6.466;2023-07-29T13:02:50;2.67;;;1.30;;
63114;SDS011;49208;50.874;6.466;2023-07-29T13:05:15;3.78;;;1.50;;
63114;SDS011;49208;50.874;6.466;2023-07-29T13:07:42;2.85;;;1.45;;
63114;SDS011;49208;50.874;6.466;2023-07-29T13:10:11;2.83;;;1.33;;
63114;SDS011;49208;50.874;6.466;2023-07-29T13:12:36;4.28;;;1.60;;
63114;SDS011;49208;50.874;6.466;2023-07-29T13:15:02;2.95;;;1.42;;
63114;SDS011;49208;50.874;6.466;2023-07-29T13:17:28;3.58;;;1.88;;
63114;SDS011;49208;50.874;6.466;2023-07-29T13:19:53;4.05;;;1.73;;
63114;SDS011;49208;50.874;6.466;2023-07-29T13:22:19;5.40;;;2.22;;
63114;SDS011;49208;50.874;6.466;2023-07-29T13:24:45;4.20;;;1.80;;
63114;SDS011;49208;50.874;6.466;2023-07-29T13:27:11;3.58;;;1.98;;
63114;SDS011;49208;50.874;6.466;2023-07-29T13:29:36;4.75;;;2.30;;
63114;SDS011;49208;50.874;6.466;2023-07-29T13:32:02;3.45;;;2.00;;
63114;SDS011;49208;50.874;6.466;2023-07-29T13:34:27;3.83;;;2.50;;
63114;SDS011;49208;50.874;6.466;2023-07-29T13:36:53;5.32;;;2.42;;
63114;SDS011;49208;50.874;6.466;2023-07-29T13:39:18;4.57;;;2.33;;
63114;SDS011;49208;50.874;6.466;2023-07-29T13:41:43;4.78;;;2.08;;
63114;SDS011;49208;50.874;6.466;2023-07-29T13:44:09;4.75;;;2.00;;
63114;SDS011;49208;50.874;6.466;2023-07-29T13:46:34;5.20;;;2.28;;
63114;SDS011;49208;50.874;6.466;2023-07-29T13:48:59;4.60;;;2.45;;
63114;SDS011;49208;50.874;6.466;2023-07-29T13:51:25;4.80;;;2.40;;
63114;SDS011;49208;50.874;6.466;2023-07-29T13:53:50;6.50;;;2.58;;
63114;SDS011;49208;50.874;6.466;2023-07-29T13:56:16;3.97;;;1.98;;
63114;SDS011;49208;50.874;6.466;2023-07-29T13:58:41;3.55;;;2.03;;
63114;SDS011;49208;50.874;6.466;2023-07-29T14:01:06;3.95;;;2.13;;
63114;SDS011;49208;50.874;6.466;2023-07-29T14:03:32;4.30;;;2.20;;
63114;SDS011;49208;50.874;6.466;2023-07-29T14:05:57;5.10;;;2.20;;
63114;SDS011;49208;50.874;6.466;2023-07-29T14:08:22;3.55;;;1.80;;
63114;SDS011;49208;50.874;6.466;2023-07-29T14:10:48;3.80;;;1.95;;
63114;SDS011;49208;50.874;6.466;2023-07-29T14:13:14;4.65;;;2.10;;
63114;SDS011;49208;50.874;6.466;2023-07-29T14:15:40;4.38;;;2.45;;
63114;SDS011;49208;50.874;6.466;2023-07-29T14:18:05;4.35;;;2.00;;
63114;SDS011;49208;50.874;6.466;2023-07-29T14:20:31;4.05;;;1.80;;
63114;SDS011;49208;50.874;6.466;2023-07-29T14:22:57;3.55;;;1.83;;
63114;SDS011;49208;50.874;6.466;2023-07-29T14:25:22;4.78;;;2.30;;
63114;SDS011;49208;50.874;6.466;2023-07-29T14:27:48;3.80;;;2.03;;
63114;SDS011;49208;50.874;6.466;2023-07-29T14:30:13;3.30;;;1.80;;
63114;SDS011;49208;50.874;6.466;2023-07-29T14:32:39;4.40;;;2.30;;
63114;SDS011;49208;50.874;6.466;2023-07-29T14:35:04;3.50;;;1.90;;
63114;SDS011;49208;50.874;6.466;2023-07-29T14:37:30;3.53;;;2.13;;
63114;SDS011;49208;50.874;6.466;2023-07-29T14:39:57;4.05;;;2.10;;
63114;SDS011;49208;50.874;6.466;2023-07-29T14:42:23;4.35;;;2.00;;
63114;SDS011;49208;50.874;6.466;2023-07-29T14:44:48;4.28;;;2.03;;
63114;SDS011;49208;50.874;6.466;2023-07-29T14:47:14;4.47;;;2.13;;
63114;SDS011;49208;50.874;6.466;2023-07-29T14:49:39;3.85;;;2.28;;
63114;SDS011;49208;50.874;6.466;2023-07-29T14:52:05;3.92;;;1.98;;
63114;SDS011;49208;50.874;6.466;2023-07-29T14:54:31;4.07;;;2.28;;
63114;SDS011;49208;50.874;6.466;2023-07-29T14:56:56;6.25;;;2.60;;
63114;SDS011;49208;50.874;6.466;2023-07-29T14:59:22;4.60;;;2.50;;
63114;SDS011;49208;50.874;6.466;2023-07-29T15:01:47;4.03;;;2.20;;
63114;SDS011;49208;50.874;6.466;2023-07-29T15:04:12;4.10;;;2.20;;
63114;SDS011;49208;50.874;6.466;2023-07-29T15:06:38;3.60;;;1.90;;
63114;SDS011;49208;50.874;6.466;2023-07-29T15:09:04;4.28;;;2.10;;
63114;SDS011;49208;50.874;6.466;2023-07-29T15:11:30;3.95;;;2.20;;
63114;SDS011;49208;50.874;6.466;2023-07-29T15:13:58;3.50;;;1.85;;
63114;SDS011;49208;50.874;6.466;2023-07-29T15:16:23;5.20;;;2.33;;
63114;SDS011;49208;50.874;6.466;2023-07-29T15:18:49;4.30;;;2.38;;
63114;SDS011;49208;50.874;6.466;2023-07-29T15:21:15;4.93;;;2.07;;
63114;SDS011;49208;50.874;6.466;2023-07-29T15:23:41;4.47;;;2.00;;
63114;SDS011;49208;50.874;6.466;2023-07-29T15:26:07;3.92;;;1.85;;
63114;SDS011;49208;50.874;6.466;2023-07-29T15:28:32;3.65;;;1.75;;
63114;SDS011;49208;50.874;6.466;2023-07-29T15:30:58;3.80;;;1.98;;
63114;SDS011;49208;50.874;6.466;2023-07-29T15:33:23;5.68;;;2.47;;
63114;SDS011;49208;50.874;6.466;2023-07-29T15:35:49;4.30;;;1.80;;
63114;SDS011;49208;50.874;6.466;2023-07-29T15:38:14;5.22;;;2.40;;
63114;SDS011;49208;50.874;6.466;2023-07-29T15:40:39;3.83;;;2.17;;
63114;SDS011;49208;50.874;6.466;2023-07-29T15:43:05;4.15;;;2.20;;
63114;SDS011;49208;50.874;6.466;2023-07-29T15:45:30;4.38;;;2.20;;
63114;SDS011;49208;50.874;6.466;2023-07-29T15:47:56;4.47;;;2.53;;
63114;SDS011;49208;50.874;6.466;2023-07-29T15:50:21;3.70;;;1.95;;
63114;SDS011;49208;50.874;6.466;2023-07-29T15:52:46;3.83;;;2.08;;
63114;SDS011;49208;50.874;6.466;2023-07-29T15:55:12;4.53;;;2.35;;
63114;SDS011;49208;50.874;6.466;2023-07-29T15:57:37;5.70;;;2.40;;
63114;SDS011;49208;50.874;6.466;2023-07-29T16:00:03;4.43;;;2.50;;
63114;SDS011;49208;50.874;6.466;2023-07-29T16:02:30;5.13;;;2.75;;
63114;SDS011;49208;50.874;6.466;2023-07-29T16:04:55;4.97;;;2.30;;
63114;SDS011;49208;50.874;6.466;2023-07-29T16:07:20;3.80;;;2.10;;
63114;SDS011;49208;50.874;6.466;2023-07-29T16:09:46;4.95;;;2.20;;
63114;SDS011;49208;50.874;6.466;2023-07-29T16:12:11;3.45;;;2.15;;
63114;SDS011;49208;50.874;6.466;2023-07-29T16:14:36;3.53;;;2.05;;
63114;SDS011;49208;50.874;6.466;2023-07-29T16:17:02;4.13;;;2.30;;
63114;SDS011;49208;50.874;6.466;2023-07-29T16:19:27;3.97;;;2.35;;
63114;SDS011;49208;50.874;6.466;2023-07-29T16:21:53;3.80;;;2.17;;
63114;SDS011;49208;50.874;6.466;2023-07-29T16:24:19;4.50;;;2.30;;
63114;SDS011;49208;50.874;6.466;2023-07-29T16:26:45;6.22;;;2.67;;
63114;SDS011;49208;50.874;6.466;2023-07-29T16:29:10;3.83;;;2.20;;
63114;SDS011;49208;50.874;6.466;2023-07-29T16:31:35;4.32;;;2.70;;
63114;SDS011;49208;50.874;6.466;2023-07-29T16:34:01;3.72;;;2.35;;
63114;SDS011;49208;50.874;6.466;2023-07-29T16:36:26;6.05;;;2.30;;
63114;SDS011;49208;50.874;6.466;2023-07-29T16:38:52;4.95;;;2.83;;
63114;SDS011;49208;50.874;6.466;2023-07-29T16:41:17;4.38;;;2.20;;
63114;SDS011;49208;50.874;6.466;2023-07-29T16:43:43;3.77;;;2.20;;
63114;SDS011;49208;50.874;6.466;2023-07-29T16:46:08;4.22;;;2.65;;
63114;SDS011;49208;50.874;6.466;2023-07-29T16:48:34;4.45;;;2.40;;
63114;SDS011;49208;50.874;6.466;2023-07-29T16:50:59;3.30;;;1.98;;
63114;SDS011;49208;50.874;6.466;2023-07-29T16:53:25;3.95;;;2.38;;
63114;SDS011;49208;50.874;6.466;2023-07-29T16:55:50;5.63;;;2.72;;
63114;SDS011;49208;50.874;6.466;2023-07-29T16:58:16;3.38;;;2.00;;
63114;SDS011;49208;50.874;6.466;2023-07-29T17:00:41;4.68;;;2.50;;
63114;SDS011;49208;50.874;6.466;2023-07-29T17:03:06;3.72;;;2.05;;
63114;SDS011;49208;50.874;6.466;2023-07-29T17:05:32;3.70;;;2.20;;
63114;SDS011;49208;50.874;6.466;2023-07-29T17:07:58;4.75;;;2.40;;
63114;SDS011;49208;50.874;6.466;2023-07-29T17:10:24;3.70;;;2.47;;
63114;SDS011;49208;50.874;6.466;2023-07-29T17:12:49;4.78;;;2.80;;
63114;SDS011;49208;50.874;6.466;2023-07-29T17:15:15;4.57;;;2.42;;
63114;SDS011;49208;50.874;6.466;2023-07-29T17:17:40;5.18;;;2.60;;
63114;SDS011;49208;50.874;6.466;2023-07-29T17:20:06;4.45;;;2.53;;
63114;SDS011;49208;50.874;6.466;2023-07-29T17:22:31;5.25;;;3.10;;
63114;SDS011;49208;50.874;6.466;2023-07-29T17:24:58;4.95;;;3.03;;
63114;SDS011;49208;50.874;6.466;2023-07-29T17:27:24;4.85;;;3.13;;
63114;SDS011;49208;50.874;6.466;2023-07-29T17:29:50;4.68;;;2.80;;
63114;SDS011;49208;50.874;6.466;2023-07-29T17:32:15;4.75;;;2.97;;
63114;SDS011;49208;50.874;6.466;2023-07-29T17:34:40;6.15;;;2.58;;
63114;SDS011;49208;50.874;6.466;2023-07-29T17:37:06;4.47;;;2.17;;
63114;SDS011;49208;50.874;6.466;2023-07-29T17:39:31;5.22;;;2.50;;
63114;SDS011;49208;50.874;6.466;2023-07-29T17:41:57;5.43;;;2.28;;
63114;SDS011;49208;50.874;6.466;2023-07-29T17:44:22;3.88;;;2.05;;
63114;SDS011;49208;50.874;6.466;2023-07-29T17:46:47;4.85;;;2.53;;
63114;SDS011;49208;50.874;6.466;2023-07-29T17:49:13;5.03;;;2.38;;
63114;SDS011;49208;50.874;6.466;2023-07-29T17:51:38;4.15;;;2.30;;
63114;SDS011;49208;50.874;6.466;2023-07-29T17:54:03;4.10;;;2.00;;
63114;SDS011;49208;50.874;6.466;2023-07-29T17:56:29;3.47;;;1.88;;
63114;SDS011;49208;50.874;6.466;2023-07-29T17:58:54;3.70;;;2.05;;
63114;SDS011;49208;50.874;6.466;2023-07-29T18:01:19;4.80;;;2.20;;
63114;SDS011;49208;50.874;6.466;2023-07-29T18:03:45;5.03;;;2.20;;
63114;SDS011;49208;50.874;6.466;2023-07-29T18:06:11;4.47;;;2.30;;
63114;SDS011;49208;50.874;6.466;2023-07-29T18:08:40;10.18;;;2.60;;
63114;SDS011;49208;50.874;6.466;2023-07-29T18:11:06;3.83;;;2.20;;
63114;SDS011;49208;50.874;6.466;2023-07-29T18:13:31;3.97;;;2.10;;
63114;SDS011;49208;50.874;6.466;2023-07-29T18:15:58;5.13;;;2.75;;
63114;SDS011;49208;50.874;6.466;2023-07-29T18:18:23;4.20;;;2.53;;
63114;SDS011;49208;50.874;6.466;2023-07-29T18:20:49;4.93;;;2.22;;
63114;SDS011;49208;50.874;6.466;2023-07-29T18:23:15;5.72;;;2.58;;
63114;SDS011;49208;50.874;6.466;2023-07-29T18:25:41;4.65;;;2.00;;
63114;SDS011;49208;50.874;6.466;2023-07-29T18:28:07;3.38;;;1.92;;
63114;SDS011;49208;50.874;6.466;2023-07-29T18:30:36;4.95;;;2.50;;
63114;SDS011;49208;50.874;6.466;2023-07-29T18:33:01;3.80;;;2.17;;
63114;SDS011;49208;50.874;6.466;2023-07-29T18:35:31;4.45;;;2.80;;
63114;SDS011;49208;50.874;6.466;2023-07-29T18:37:56;4.38;;;2.33;;
63114;SDS011;49208;50.874;6.466;2023-07-29T18:40:28;3.80;;;2.30;;
63114;SDS011;49208;50.874;6.466;2023-07-29T18:42:53;4.53;;;2.38;;
63114;SDS011;49208;50.874;6.466;2023-07-29T18:45:19;3.75;;;2.10;;
63114;SDS011;49208;50.874;6.466;2023-07-29T18:47:44;4.22;;;1.90;;
63114;SDS011;49208;50.874;6.466;2023-07-29T18:50:10;3.42;;;2.17;;
63114;SDS011;49208;50.874;6.466;2023-07-29T18:52:35;4.05;;;2.20;;
63114;SDS011;49208;50.874;6.466;2023-07-29T18:55:00;4.28;;;1.85;;
63114;SDS011;49208;50.874;6.466;2023-07-29T18:57:26;3.55;;;2.00;;
63114;SDS011;49208;50.874;6.466;2023-07-29T18:59:51;6.60;;;3.70;;
63114;SDS011;49208;50.874;6.466;2023-07-29T19:02:17;6.30;;;3.20;;
63114;SDS011;49208;50.874;6.466;2023-07-29T19:04:42;7.18;;;4.13;;
63114;SDS011;49208;50.874;6.466;2023-07-29T19:07:12;4.63;;;2.60;;
63114;SDS011;49208;50.874;6.466;2023-07-29T19:09:41;5.40;;;3.05;;
63114;SDS011;49208;50.874;6.466;2023-07-29T19:12:10;6.90;;;3.13;;
63114;SDS011;49208;50.874;6.466;2023-07-29T19:14:38;7.10;;;3.00;;
63114;SDS011;49208;50.874;6.466;2023-07-29T19:17:03;6.13;;;3.17;;
63114;SDS011;49208;50.874;6.466;2023-07-29T19:19:29;4.63;;;2.40;;
63114;SDS011;49208;50.874;6.466;2023-07-29T19:21:54;4.40;;;2.47;;
63114;SDS011;49208;50.874;6.466;2023-07-29T19:24:20;5.32;;;2.47;;
63114;SDS011;49208;50.874;6.466;2023-07-29T19:26:45;3.65;;;1.88;;
63114;SDS011;49208;50.874;6.466;2023-07-29T19:29:10;4.50;;;2.17;;
63114;SDS011;49208;50.874;6.466;2023-07-29T19:31:39;4.00;;;2.17;;
63114;SDS011;49208;50.874;6.466;2023-07-29T19:34:06;4.38;;;2.10;;
63114;SDS011;49208;50.874;6.466;2023-07-29T19:36:32;4.32;;;2.20;;
63114;SDS011;49208;50.874;6.466;2023-07-29T19:38:59;4.72;;;2.35;;
63114;SDS011;49208;50.874;6.466;2023-07-29T19:41:25;4.72;;;2.10;;
63114;SDS011;49208;50.874;6.466;2023-07-29T19:43:52;5.45;;;2.10;;
63114;SDS011;49208;50.874;6.466;2023-07-29T19:46:18;4.93;;;2.22;;
63114;SDS011;49208;50.874;6.466;2023-07-29T19:48:44;4.28;;;2.00;;
63114;SDS011;49208;50.874;6.466;2023-07-29T19:51:10;4.70;;;2.00;;
63114;SDS011;49208;50.874;6.466;2023-07-29T19:53:35;4.70;;;2.00;;
63114;SDS011;49208;50.874;6.466;2023-07-29T19:56:00;3.90;;;1.80;;
63114;SDS011;49208;50.874;6.466;2023-07-29T19:58:26;3.55;;;1.73;;
63114;SDS011;49208;50.874;6.466;2023-07-29T20:00:51;3.70;;;1.77;;
63114;SDS011;49208;50.874;6.466;2023-07-29T20:03:17;3.20;;;1.50;;
63114;SDS011;49208;50.874;6.466;2023-07-29T20:05:43;4.00;;;1.70;;
63114;SDS011;49208;50.874;6.466;2023-07-29T20:08:09;5.22;;;2.00;;
63114;SDS011;49208;50.874;6.466;2023-07-29T20:10:34;3.45;;;1.58;;
63114;SDS011;49208;50.874;6.466;2023-07-29T20:13:00;3.40;;;1.80;;
63114;SDS011;49208;50.874;6.466;2023-07-29T20:15:25;3.53;;;1.60;;
63114;SDS011;49208;50.874;6.466;2023-07-29T20:17:51;3.17;;;1.60;;
63114;SDS011;49208;50.874;6.466;2023-07-29T20:20:16;3.30;;;1.80;;
63114;SDS011;49208;50.874;6.466;2023-07-29T20:22:42;5.20;;;1.85;;
63114;SDS011;49208;50.874;6.466;2023-07-29T20:25:07;3.60;;;1.80;;
63114;SDS011;49208;50.874;6.466;2023-07-29T20:27:33;4.40;;;1.98;;
63114;SDS011;49208;50.874;6.466;2023-07-29T20:29:58;3.47;;;1.80;;
63114;SDS011;49208;50.874;6.466;2023-07-29T20:32:24;3.70;;;1.73;;
63114;SDS011;49208;50.874;6.466;2023-07-29T20:34:50;4.03;;;1.92;;
63114;SDS011;49208;50.874;6.466;2023-07-29T20:37:17;3.42;;;1.73;;
63114;SDS011;49208;50.874;6.466;2023-07-29T20:39:43;3.60;;;1.92;;
63114;SDS011;49208;50.874;6.466;2023-07-29T20:42:08;4.22;;;2.10;;
63114;SDS011;49208;50.874;6.466;2023-07-29T20:44:34;3.75;;;1.80;;
63114;SDS011;49208;50.874;6.466;2023-07-29T20:46:59;3.78;;;1.85;;
63114;SDS011;49208;50.874;6.466;2023-07-29T20:49:26;3.85;;;2.10;;
63114;SDS011;49208;50.874;6.466;2023-07-29T20:51:52;3.53;;;1.80;;
63114;SDS011;49208;50.874;6.466;2023-07-29T20:54:19;4.75;;;1.90;;
63114;SDS011;49208;50.874;6.466;2023-07-29T20:56:45;4.32;;;2.15;;
63114;SDS011;49208;50.874;6.466;2023-07-29T20:59:10;4.30;;;1.63;;